Time;durP1;ratioP1;P1;durP2;ratioP2;P2;SDS_P1;SDS_P2;PMS_P1;PMS_P2;Temp;Humidity;BMP_temperature;BMP_pressure;BME280_temperature;BME280_humidity;BME280_pressure;Samples;Min_cycle;Max_cycle;Signal;HPM_P1;HPM_P2
2021/07/17 00:01:13;;;;;;;;;17.75;16.75;;;;;-146.80;100.00;64830.25;5076038;28;45340;-59
2021/07/17 00:03:38;;;;;;;;;15.25;14.75;;;;;-146.80;100.00;64830.25;5076709;28;45282;-67
2021/07/17 00:06:04;;;;;;;;;19.75;14.25;;;;;-146.80;100.00;64830.25;5075346;28;45357;-59
2021/07/17 00:08:30;;;;;;;;;22.25;18.00;;;;;-146.80;100.00;64830.25;5074749;28;46784;-60
2021/07/17 00:10:59;;;;;;;;;15.00;12.75;;;;;-146.80;100.00;64830.25;5075673;27;45325;-61
2021/07/17 00:13:25;;;;;;;;;19.50;15.75;;;;;-146.80;100.00;64830.25;5075017;28;45306;-61
2021/07/17 00:15:51;;;;;;;;;18.25;16.25;;;;;-146.80;100.00;64830.25;5076082;27;45602;-59
2021/07/17 00:18:17;;;;;;;;;17.25;15.50;;;;;-146.80;100.00;64830.25;5075739;28;46019;-66
2021/07/17 00:20:45;;;;;;;;;19.25;15.25;;;;;-146.80;100.00;64830.25;5075806;28;45243;-64
2021/07/17 00:23:10;;;;;;;;;17.25;13.50;;;;;-146.80;100.00;64830.25;5078344;28;45269;-59
2021/07/17 00:25:36;;;;;;;;;15.25;14.50;;;;;-146.80;100.00;64830.25;5079370;28;45601;-61
2021/07/17 00:28:02;;;;;;;;;18.50;14.75;;;;;-146.80;100.00;64830.25;5077788;28;46780;-61
2021/07/17 00:30:27;;;;;;;;;19.00;15.75;;;;;-146.80;100.00;64830.25;5079016;28;45463;-65
2021/07/17 00:32:53;;;;;;;;;17.50;14.75;;;;;-146.80;100.00;64830.25;5079270;28;45465;-60
2021/07/17 00:35:18;;;;;;;;;16.00;13.75;;;;;-146.80;100.00;64830.25;5079371;27;45416;-62
2021/07/17 00:37:44;;;;;;;;;16.25;13.50;;;;;-146.80;100.00;64830.25;5077175;28;45737;-59
2021/07/17 00:40:11;;;;;;;;;19.25;18.25;;;;;-146.80;100.00;64830.25;5060815;28;45442;-61
2021/07/17 00:42:42;;;;;;;;;14.75;14.25;;;;;-146.80;100.00;64830.25;5077494;28;45459;-62
2021/07/17 00:45:08;;;;;;;;;18.25;15.00;;;;;-146.80;100.00;64830.25;5078824;28;45340;-60
2021/07/17 00:47:36;;;;;;;;;19.25;16.75;;;;;-146.80;100.00;64830.25;5059927;28;46249;-61
2021/07/17 00:50:06;;;;;;;;;16.50;15.00;;;;;-146.80;100.00;64830.25;5078837;27;45740;-64
2021/07/17 00:52:32;;;;;;;;;19.25;16.75;;;;;-146.80;100.00;64830.25;5078869;27;45282;-59
2021/07/17 00:54:58;;;;;;;;;23.50;16.25;;;;;-146.80;100.00;64830.25;5077432;28;45414;-60
2021/07/17 00:57:25;;;;;;;;;17.00;14.25;;;;;-146.80;100.00;64830.25;5078341;28;46100;-65
2021/07/17 00:59:52;;;;;;;;;19.75;15.75;;;;;-146.80;100.00;64830.25;5078661;28;45469;-61
2021/07/17 01:02:19;;;;;;;;;24.50;17.75;;;;;-146.80;100.00;64830.25;5078299;28;45180;-60
2021/07/17 01:04:46;;;;;;;;;17.00;16.50;;;;;-146.80;100.00;64830.25;5077131;28;45270;-62
2021/07/17 01:07:12;;;;;;;;;18.75;16.75;;;;;-146.80;100.00;64830.25;5078203;28;45384;-65
2021/07/17 01:09:37;;;;;;;;;20.25;16.00;;;;;-146.80;100.00;64830.25;5078298;28;45410;-61
2021/07/17 01:12:03;;;;;;;;;16.25;15.50;;;;;-146.80;100.00;64830.25;5078737;28;45276;-65
2021/07/17 01:14:30;;;;;;;;;23.75;16.00;;;;;-146.80;100.00;64830.25;5078678;28;45647;-68
2021/07/17 01:16:55;;;;;;;;;19.50;15.75;;;;;-146.80;100.00;64830.25;5078248;27;46369;-64
2021/07/17 01:19:23;;;;;;;;;24.00;17.75;;;;;-146.80;100.00;64830.25;5078119;28;45453;-60
2021/07/17 01:21:51;;;;;;;;;17.50;16.50;;;;;-146.80;100.00;64830.25;5078027;28;45250;-70
2021/07/17 01:24:16;;;;;;;;;17.50;17.25;;;;;-146.80;100.00;64830.25;5076957;28;45351;-60
2021/07/17 01:26:42;;;;;;;;;19.00;18.75;;;;;-146.80;100.00;64830.25;5077889;27;46277;-60
2021/07/17 01:29:08;;;;;;;;;23.75;21.00;;;;;-146.80;100.00;64830.25;5078037;28;45299;-63
2021/07/17 01:31:33;;;;;;;;;23.00;17.75;;;;;-146.80;100.00;64830.25;5078535;28;45327;-60
2021/07/17 01:33:58;;;;;;;;;19.25;16.25;;;;;-146.80;100.00;64830.25;5077766;28;45369;-64
2021/07/17 01:36:24;;;;;;;;;21.25;15.50;;;;;-146.80;100.00;64830.25;5077706;27;46268;-62
2021/07/17 01:38:49;;;;;;;;;18.75;16.25;;;;;-146.80;100.00;64830.25;5077842;28;45399;-61
2021/07/17 01:41:16;;;;;;;;;25.25;19.75;;;;;-146.80;100.00;64830.25;5078103;28;45404;-60
2021/07/17 01:43:42;;;;;;;;;21.25;18.50;;;;;-146.80;100.00;64830.25;5077950;28;45361;-60
2021/07/17 01:46:07;;;;;;;;;21.00;17.25;;;;;-146.80;100.00;64830.25;5078060;28;46109;-63
2021/07/17 01:48:33;;;;;;;;;20.00;16.50;;;;;-146.80;100.00;64830.25;5077881;28;45390;-68
2021/07/17 01:50:59;;;;;;;;;20.00;16.25;;;;;-146.80;100.00;64830.25;5076528;28;45474;-66
2021/07/17 01:53:24;;;;;;;;;20.00;17.75;;;;;-146.80;100.00;64830.25;5077722;28;45228;-67
2021/07/17 01:55:49;;;;;;;;;18.75;17.00;;;;;-146.80;100.00;64830.25;5077372;28;45932;-70
2021/07/17 01:58:15;;;;;;;;;21.00;17.25;;;;;-146.80;100.00;64830.25;5077802;28;45341;-64
2021/07/17 02:00:41;;;;;;;;;19.25;16.00;;;;;-146.80;100.00;64830.25;5077715;28;45303;-64
2021/07/17 02:03:06;;;;;;;;;18.25;17.25;;;;;-146.80;100.00;64830.25;5076694;28;45267;-60
2021/07/17 02:05:32;;;;;;;;;20.00;17.50;;;;;-146.80;100.00;64830.25;5077471;28;45960;-61
2021/07/17 02:07:59;;;;;;;;;26.25;19.75;;;;;-146.80;100.00;64830.25;5077288;28;45428;-63
2021/07/17 02:10:28;;;;;;;;;24.75;20.50;;;;;-146.80;100.00;64830.25;5077485;27;45447;-60
2021/07/17 02:12:58;;;;;;;;;16.50;15.50;;;;;-146.80;100.00;64830.25;5077423;28;45400;-59
2021/07/17 02:15:24;;;;;;;;;19.50;16.00;;;;;-146.80;100.00;64830.25;5076907;27;45985;-60
2021/07/17 02:17:50;;;;;;;;;18.50;15.25;;;;;-146.80;100.00;64830.25;5077066;28;45428;-59
2021/07/17 02:20:16;;;;;;;;;18.50;16.75;;;;;-146.80;100.00;64830.25;5077121;27;45414;-59
2021/07/17 02:22:42;;;;;;;;;22.50;18.75;;;;;-146.80;100.00;64830.25;5077300;28;45448;-60
2021/07/17 02:25:08;;;;;;;;;22.50;16.75;;;;;-146.80;100.00;64830.25;5077398;28;46406;-63
2021/07/17 02:27:33;;;;;;;;;22.25;18.50;;;;;-146.80;100.00;64830.25;5075793;28;46163;-63
2021/07/17 02:29:58;;;;;;;;;19.50;17.50;;;;;-146.80;100.00;64830.25;5076840;28;45179;-61
2021/07/17 02:32:24;;;;;;;;;20.25;17.00;;;;;-146.80;100.00;64830.25;5077273;28;45405;-62
2021/07/17 02:34:50;;;;;;;;;22.75;21.00;;;;;-146.80;100.00;64830.25;5076931;28;45239;-61
2021/07/17 02:37:16;;;;;;;;;21.50;20.00;;;;;-146.80;100.00;64830.25;5075538;28;45270;-59
2021/07/17 02:39:42;;;;;;;;;23.00;20.25;;;;;-146.80;100.00;64830.25;5076941;28;45387;-59
2021/07/17 02:42:07;;;;;;;;;25.50;21.50;;;;;-146.80;100.00;64830.25;5077369;28;45690;-59
2021/07/17 02:44:33;;;;;;;;;20.75;16.75;;;;;-146.80;100.00;64830.25;5075731;28;45929;-60
2021/07/17 02:46:58;;;;;;;;;24.25;21.00;;;;;-146.80;100.00;64830.25;5076957;28;45459;-60
2021/07/17 02:49:23;;;;;;;;;26.50;22.25;;;;;-146.80;100.00;64830.25;5077055;27;45307;-60
2021/07/17 02:51:49;;;;;;;;;23.00;19.00;;;;;-146.80;100.00;64830.25;5075688;28;45461;-62
2021/07/17 02:54:15;;;;;;;;;30.50;23.50;;;;;-146.80;100.00;64830.25;5075404;28;48065;-60
2021/07/17 02:56:41;;;;;;;;;25.50;21.00;;;;;-146.80;100.00;64830.25;5076018;28;45357;-62
2021/07/17 02:59:06;;;;;;;;;21.75;18.50;;;;;-146.80;100.00;64830.25;5076951;28;45417;-60
2021/07/17 03:01:32;;;;;;;;;25.75;19.50;;;;;-146.80;100.00;64830.25;5077146;28;45349;-63
2021/07/17 03:03:57;;;;;;;;;19.50;16.50;;;;;-146.80;100.00;64830.25;5076663;27;46297;-60
2021/07/17 03:06:22;;;;;;;;;28.25;21.75;;;;;-146.80;100.00;64830.25;5076712;28;45247;-59
2021/07/17 03:08:48;;;;;;;;;23.00;20.50;;;;;-146.80;100.00;64830.25;5076655;28;45431;-64
2021/07/17 03:11:13;;;;;;;;;26.75;22.50;;;;;-146.80;100.00;64830.25;5076808;28;45455;-60
2021/07/17 03:13:39;;;;;;;;;26.00;20.00;;;;;-146.80;100.00;64830.25;5076836;28;45306;-64
2021/07/17 03:16:05;;;;;;;;;21.75;20.00;;;;;-146.80;100.00;64830.25;5076510;28;45191;-61
2021/07/17 03:18:30;;;;;;;;;23.75;20.00;;;;;-146.80;100.00;64830.25;5076482;28;45406;-60
2021/07/17 03:20:56;;;;;;;;;21.25;19.00;;;;;-146.80;100.00;64830.25;5076673;28;45535;-60
2021/07/17 03:23:21;;;;;;;;;27.75;23.50;;;;;-146.80;100.00;64830.25;5076207;28;46082;-63
2021/07/17 03:25:46;;;;;;;;;22.25;17.50;;;;;-146.80;100.00;64830.25;5075235;28;45268;-70
2021/07/17 03:28:12;;;;;;;;;28.50;23.50;;;;;-146.80;100.00;64830.25;5076857;28;45426;-67
2021/07/17 03:30:37;;;;;;;;;25.50;24.50;;;;;-146.80;100.00;64830.25;5076529;27;45164;-65
2021/07/17 03:33:03;;;;;;;;;22.00;18.00;;;;;-146.80;100.00;64830.25;5076257;27;45356;-64
2021/07/17 03:35:28;;;;;;;;;25.00;20.50;;;;;-146.80;100.00;64830.25;5076197;28;45303;-65
2021/07/17 03:37:54;;;;;;;;;26.75;20.75;;;;;-146.80;100.00;64830.25;5076442;28;45306;-66
2021/07/17 03:40:19;;;;;;;;;28.75;23.25;;;;;-146.80;100.00;64830.25;5076581;27;45392;-64
2021/07/17 03:42:44;;;;;;;;;22.25;19.25;;;;;-146.80;100.00;64830.25;5074530;28;46043;-63
2021/07/17 03:45:10;;;;;;;;;24.00;20.75;;;;;-146.80;100.00;64830.25;5076604;28;45518;-61
2021/07/17 03:47:35;;;;;;;;;26.50;22.50;;;;;-146.80;100.00;64830.25;5076204;28;45400;-63
2021/07/17 03:50:02;;;;;;;;;30.50;25.25;;;;;-146.80;100.00;64830.25;5076574;28;45426;-64
2021/07/17 03:52:27;;;;;;;;;24.50;20.25;;;;;-146.80;100.00;64830.25;5076295;28;45367;-64
2021/07/17 03:54:53;;;;;;;;;25.50;21.25;;;;;-146.80;100.00;64830.25;5076087;27;45327;-62
2021/07/17 03:57:18;;;;;;;;;25.75;22.00;;;;;-146.80;100.00;64830.25;5079381;28;45224;-60
2021/07/17 03:59:44;;;;;;;;;31.50;25.25;;;;;-146.80;100.00;64830.25;5080290;28;45539;-59
2021/07/17 04:02:09;;;;;;;;;23.25;21.00;;;;;-146.80;100.00;64830.25;5079715;28;45371;-59
2021/07/17 04:04:40;;;;;;;;;27.25;20.25;;;;;-146.80;100.00;64830.25;5061257;28;45334;-61
2021/07/17 04:07:06;;;;;;;;;35.75;26.00;;;;;-146.80;100.00;64830.25;5079835;28;45366;-59
2021/07/17 04:09:31;;;;;;;;;25.00;21.75;;;;;-146.80;100.00;64830.25;5079705;28;45375;-62
2021/07/17 04:11:56;;;;;;;;;20.00;18.00;;;;;-146.80;100.00;64830.25;5079372;28;45308;-60
2021/07/17 04:14:22;;;;;;;;;30.75;25.50;;;;;-146.80;100.00;64830.25;5079330;28;45323;-60
2021/07/17 04:16:47;;;;;;;;;30.75;25.00;;;;;-146.80;100.00;64830.25;5079588;28;45493;-64
2021/07/17 04:19:14;;;;;;;;;25.25;22.25;;;;;-146.80;100.00;64830.25;5080086;28;45235;-59
2021/07/17 04:21:39;;;;;;;;;23.75;18.50;;;;;-146.80;100.00;64830.25;5078323;28;45286;-59
2021/07/17 04:24:05;;;;;;;;;24.00;20.50;;;;;-146.80;100.00;64830.25;5079249;28;45237;-60
2021/07/17 04:26:30;;;;;;;;;27.25;24.50;;;;;-146.80;100.00;64830.25;5079531;27;45376;-60
2021/07/17 04:28:56;;;;;;;;;29.25;27.25;;;;;-146.80;100.00;64830.25;5079403;28;45579;-65
2021/07/17 04:31:21;;;;;;;;;23.00;18.75;;;;;-146.80;100.00;64830.25;5079337;27;45822;-60
2021/07/17 04:33:46;;;;;;;;;25.50;20.25;;;;;-146.80;100.00;64830.25;5079190;27;45271;-61
2021/07/17 04:36:12;;;;;;;;;23.75;23.25;;;;;-146.80;100.00;64830.25;5079632;27;45313;-61
2021/07/17 04:38:39;;;;;;;;;29.00;22.50;;;;;-146.80;100.00;64830.25;5079785;28;45172;-59
2021/07/17 04:41:05;;;;;;;;;25.00;21.50;;;;;-146.80;100.00;64830.25;5079204;28;45969;-61
2021/07/17 04:43:31;;;;;;;;;27.75;20.75;;;;;-146.80;100.00;64830.25;5078685;28;45325;-66
2021/07/17 04:45:56;;;;;;;;;27.50;22.50;;;;;-146.80;100.00;64830.25;5078966;28;45302;-64
2021/07/17 04:48:21;;;;;;;;;24.75;23.50;;;;;-146.80;100.00;64830.25;5079162;27;45541;-65
2021/07/17 04:50:47;;;;;;;;;26.25;20.75;;;;;-146.80;100.00;64830.25;5079177;27;45422;-60
2021/07/17 04:53:12;;;;;;;;;21.75;19.25;;;;;-146.80;100.00;64830.25;5079033;28;45407;-65
2021/07/17 04:55:38;;;;;;;;;23.75;20.25;;;;;-146.80;100.00;64830.25;5079175;27;45326;-59
2021/07/17 04:58:04;;;;;;;;;25.25;22.75;;;;;-146.80;100.00;64830.25;5078982;27;45251;-60
2021/07/17 05:00:29;;;;;;;;;28.25;22.00;;;;;-146.80;100.00;64830.25;5078734;28;45258;-63
2021/07/17 05:02:56;;;;;;;;;26.00;22.75;;;;;-146.80;100.00;64830.25;5077397;28;45377;-68
2021/07/17 05:05:23;;;;;;;;;30.75;26.25;;;;;-146.80;100.00;64830.25;5078747;28;45253;-62
2021/07/17 05:07:49;;;;;;;;;22.75;20.75;;;;;-146.80;100.00;64830.25;5078116;27;45440;-62
2021/07/17 05:10:18;;;;;;;;;24.50;21.50;;;;;-146.80;100.00;64830.25;5078860;28;45373;-64
2021/07/17 05:12:44;;;;;;;;;25.25;22.00;;;;;-146.80;100.00;64830.25;5077321;28;45394;-62
2021/07/17 05:15:11;;;;;;;;;30.50;24.50;;;;;-146.80;100.00;64830.25;5078753;28;45400;-67
2021/07/17 05:17:37;;;;;;;;;22.25;19.75;;;;;-146.80;100.00;64830.25;5078821;28;45524;-62
2021/07/17 05:20:04;;;;;;;;;26.25;24.25;;;;;-146.80;100.00;64830.25;5078471;28;46200;-63
2021/07/17 05:22:30;;;;;;;;;27.75;25.50;;;;;-146.80;100.00;64830.25;5078218;28;45434;-65
2021/07/17 05:24:56;;;;;;;;;23.50;20.50;;;;;-146.80;100.00;64830.25;5078428;27;45395;-65
2021/07/17 05:27:21;;;;;;;;;23.25;19.25;;;;;-146.80;100.00;64830.25;5078562;28;45727;-59
2021/07/17 05:29:47;;;;;;;;;26.75;22.50;;;;;-146.80;100.00;64830.25;5060343;28;45422;-61
2021/07/17 05:32:14;;;;;;;;;33.00;25.00;;;;;-146.80;100.00;64830.25;5078299;28;45502;-61
2021/07/17 05:34:40;;;;;;;;;24.50;22.00;;;;;-146.80;100.00;64830.25;5078637;28;45423;-59
2021/07/17 05:37:07;;;;;;;;;28.00;25.75;;;;;-146.80;100.00;64830.25;5078355;28;45386;-63
2021/07/17 05:39:32;;;;;;;;;34.75;26.00;;;;;-146.80;100.00;64830.25;5077964;28;46700;-61
2021/07/17 05:41:57;;;;;;;;;27.00;22.50;;;;;-146.80;100.00;64830.25;5078041;28;45370;-59
2021/07/17 05:44:23;;;;;;;;;26.25;20.75;;;;;-146.80;100.00;64830.25;5078067;28;45430;-59
2021/07/17 05:46:48;;;;;;;;;17.50;17.50;;;;;-146.80;100.00;64830.25;5078709;28;45359;-63
2021/07/17 05:49:13;;;;;;;;;29.50;23.25;;;;;-146.80;100.00;64830.25;5077572;28;45929;-63
2021/07/17 05:51:38;;;;;;;;;32.00;25.25;;;;;-146.80;100.00;64830.25;5078064;27;45321;-61
2021/07/17 05:54:04;;;;;;;;;21.25;16.50;;;;;-146.80;100.00;64830.25;5077985;28;45364;-65
2021/07/17 05:56:29;;;;;;;;;32.25;23.75;;;;;-146.80;100.00;64830.25;5078164;27;45366;-58
2021/07/17 05:58:54;;;;;;;;;28.50;24.25;;;;;-146.80;100.00;64830.25;5077769;28;46211;-66
2021/07/17 06:01:20;;;;;;;;;31.50;23.50;;;;;-146.80;100.00;64830.25;5078103;28;45340;-62
2021/07/17 06:03:46;;;;;;;;;22.25;19.00;;;;;-146.80;100.00;64830.25;5078186;28;45340;-61
2021/07/17 06:06:12;;;;;;;;;32.00;27.75;;;;;-146.80;100.00;64830.25;5077931;28;45536;-60
2021/07/17 06:08:38;;;;;;;;;29.50;25.50;;;;;-146.80;100.00;64830.25;5075861;28;47101;-62
2021/07/17 06:11:03;;;;;;;;;44.50;29.50;;;;;-146.80;100.00;64830.25;5077270;27;45176;-60
2021/07/17 06:13:28;;;;;;;;;32.75;28.00;;;;;-146.80;100.00;64830.25;5077502;28;45314;-63
2021/07/17 06:15:54;;;;;;;;;30.00;25.00;;;;;-146.80;100.00;64830.25;5077947;27;45560;-60
2021/07/17 06:18:19;;;;;;;;;30.50;27.00;;;;;-146.80;100.00;64830.25;5077720;27;46240;-65
2021/07/17 06:20:44;;;;;;;;;30.50;25.25;;;;;-146.80;100.00;64830.25;5077392;27;45231;-59
2021/07/17 06:23:10;;;;;;;;;32.25;25.75;;;;;-146.80;100.00;64830.25;5077380;28;45315;-64
2021/07/17 06:25:36;;;;;;;;;27.75;27.00;;;;;-146.80;100.00;64830.25;5077712;28;45543;-61
2021/07/17 06:28:02;;;;;;;;;30.00;25.75;;;;;-146.80;100.00;64830.25;5076052;27;45479;-63
2021/07/17 06:30:27;;;;;;;;;32.25;26.00;;;;;-146.80;100.00;64830.25;5076425;28;45394;-63
2021/07/17 06:32:52;;;;;;;;;33.50;26.75;;;;;-146.80;100.00;64830.25;5077152;28;45506;-65
2021/07/17 06:35:18;;;;;;;;;27.75;25.50;;;;;-146.80;100.00;64830.25;5076970;28;45333;-63
2021/07/17 06:37:43;;;;;;;;;29.75;25.25;;;;;-146.80;100.00;64830.25;5075398;28;48198;-65
2021/07/17 06:40:11;;;;;;;;;35.75;25.00;;;;;-146.80;100.00;64830.25;5077084;28;45279;-65
2021/07/17 06:42:48;;;;;;;;;37.25;28.00;;;;;-146.80;100.00;64830.25;5077598;28;45381;-63
2021/07/17 06:45:19;;;;;;;;;31.75;29.25;;;;;-146.80;100.00;64830.25;5077020;28;45415;-63
2021/07/17 06:47:46;;;;;;;;;25.75;25.50;;;;;-146.80;100.00;64830.25;5076979;28;45437;-62
2021/07/17 06:50:13;;;;;;;;;35.00;31.25;;;;;-146.80;100.00;64830.25;5076672;28;46029;-67
2021/07/17 06:52:39;;;;;;;;;31.25;27.00;;;;;-146.80;100.00;64830.25;5077303;28;45271;-60
2021/07/17 06:55:06;;;;;;;;;28.75;25.00;;;;;-146.80;100.00;64830.25;5077467;28;45322;-66
2021/07/17 06:57:32;;;;;;;;;26.00;24.25;;;;;-146.80;100.00;64830.25;5075489;28;47698;-65
2021/07/17 06:59:57;;;;;;;;;27.75;24.00;;;;;-146.80;100.00;64830.25;5076962;28;45331;-68
2021/07/17 07:02:23;;;;;;;;;27.50;23.50;;;;;-146.80;100.00;64830.25;5077698;28;45322;-70
2021/07/17 07:04:48;;;;;;;;;26.50;24.00;;;;;-146.80;100.00;64830.25;5077341;27;45460;-67
2021/07/17 07:07:14;;;;;;;;;33.00;26.00;;;;;-146.80;100.00;64830.25;5076731;28;45371;-69
2021/07/17 07:09:39;;;;;;;;;32.50;28.50;;;;;-146.80;100.00;64830.25;5076390;28;45461;-68
2021/07/17 07:12:04;;;;;;;;;36.50;29.75;;;;;-146.80;100.00;64830.25;5075785;28;45374;-63
2021/07/17 07:14:30;;;;;;;;;31.25;25.25;;;;;-146.80;100.00;64830.25;5077026;27;45437;-61
2021/07/17 07:16:55;;;;;;;;;33.50;28.00;;;;;-146.80;100.00;64830.25;5076520;28;46236;-62
2021/07/17 07:19:21;;;;;;;;;35.75;28.75;;;;;-146.80;100.00;64830.25;5075548;28;45408;-61
2021/07/17 07:21:48;;;;;;;;;34.00;25.50;;;;;-146.80;100.00;64830.25;5076491;28;45429;-62
2021/07/17 07:24:13;;;;;;;;;31.00;25.75;;;;;-146.80;100.00;64830.25;5076647;28;45223;-60
2021/07/17 07:26:39;;;;;;;;;26.50;22.50;;;;;-146.80;100.00;64830.25;5074918;28;45278;-58
2021/07/17 07:29:04;;;;;;;;;32.25;27.00;;;;;-146.80;100.00;64830.25;5076575;28;45295;-62
2021/07/17 07:31:30;;;;;;;;;29.00;24.00;;;;;-146.80;100.00;64830.25;5076204;28;45210;-61
2021/07/17 07:33:55;;;;;;;;;27.00;25.25;;;;;-146.80;100.00;64830.25;5077122;28;45211;-62
2021/07/17 07:36:20;;;;;;;;;29.50;27.00;;;;;-146.80;100.00;64830.25;5076605;28;46559;-67
2021/07/17 07:38:46;;;;;;;;;31.50;25.00;;;;;-146.80;100.00;64830.25;5076553;28;45282;-68
2021/07/17 07:41:12;;;;;;;;;28.25;25.25;;;;;-146.80;100.00;64830.25;5076336;28;45496;-68
2021/07/17 07:43:38;;;;;;;;;34.00;27.25;;;;;-146.80;100.00;64830.25;5076349;28;45316;-66
2021/07/17 07:46:03;;;;;;;;;26.00;23.75;;;;;-146.80;100.00;64830.25;5076023;28;46140;-66
2021/07/17 07:48:29;;;;;;;;;25.00;23.00;;;;;-146.80;100.00;64830.25;5076059;27;45472;-63
2021/07/17 07:50:55;;;;;;;;;24.75;22.00;;;;;-146.80;100.00;64830.25;5074546;28;45777;-66
2021/07/17 07:53:21;;;;;;;;;36.00;29.25;;;;;-146.80;100.00;64830.25;5075849;28;45384;-66
2021/07/17 07:55:46;;;;;;;;;31.25;25.75;;;;;-146.80;100.00;64830.25;5075690;28;45411;-67
2021/07/17 07:58:12;;;;;;;;;29.75;25.00;;;;;-146.80;100.00;64830.25;5075931;28;45413;-67
2021/07/17 08:00:37;;;;;;;;;30.75;28.25;;;;;-146.80;100.00;64830.25;5075899;28;45414;-68
2021/07/17 08:03:02;;;;;;;;;33.50;26.50;;;;;-146.80;100.00;64830.25;5076011;28;45389;-65
2021/07/17 08:05:28;;;;;;;;;34.00;29.00;;;;;-146.80;100.00;64830.25;5074260;28;46722;-67
2021/07/17 08:07:54;;;;;;;;;30.00;25.50;;;;;-146.80;100.00;64830.25;5074704;28;45306;-65
2021/07/17 08:10:20;;;;;;;;;33.00;28.25;;;;;-146.80;100.00;64830.25;5076146;28;45319;-64
2021/07/17 08:12:46;;;;;;;;;28.25;24.00;;;;;-146.80;100.00;64830.25;5075453;28;45471;-62
2021/07/17 08:15:12;;;;;;;;;31.00;24.50;;;;;-146.80;100.00;64830.25;5075763;28;45695;-62
2021/07/17 08:17:37;;;;;;;;;28.00;25.25;;;;;-146.80;100.00;64830.25;5070546;28;45596;-62
2021/07/17 08:20:09;;;;;;;;;27.50;24.75;;;;;-146.80;100.00;64830.25;5073722;27;45597;-61
2021/07/17 08:22:39;;;;;;;;;34.50;30.50;;;;;-146.80;100.00;64830.25;5090420;27;45458;-68
2021/07/17 08:25:06;;;;;;;;;29.50;24.75;;;;;-146.80;100.00;64830.25;5075849;27;46232;-64
2021/07/17 08:27:31;;;;;;;;;28.25;27.75;;;;;-146.80;100.00;64830.25;5081230;27;45313;-63
2021/07/17 08:29:57;;;;;;;;;34.50;27.00;;;;;-146.80;100.00;64830.25;5086962;27;45407;-64
2021/07/17 08:32:23;;;;;;;;;28.50;24.00;;;;;-146.80;100.00;64830.25;5088908;27;45610;-61
2021/07/17 08:34:51;;;;;;;;;34.25;27.00;;;;;-146.80;100.00;64830.25;5078708;27;45508;-68
2021/07/17 08:37:17;;;;;;;;;32.75;27.50;;;;;-146.80;100.00;64830.25;5064872;28;45401;-67
2021/07/17 08:39:43;;;;;;;;;35.25;27.00;;;;;-146.80;100.00;64830.25;5082898;27;45298;-65
2021/07/17 08:42:09;;;;;;;;;35.25;31.00;;;;;-146.80;100.00;64830.25;5084840;27;45475;-63
2021/07/17 08:44:37;;;;;;;;;32.25;25.75;;;;;-146.80;100.00;64830.25;5093013;27;45981;-68
2021/07/17 08:47:04;;;;;;;;;33.50;23.50;;;;;-146.80;100.00;64830.25;5080536;27;45414;-65
2021/07/17 08:49:30;;;;;;;;;28.25;23.75;;;;;-146.80;100.00;64830.25;5081630;27;45511;-64
2021/07/17 08:51:56;;;;;;;;;31.25;26.75;;;;;-146.80;100.00;64830.25;5088425;27;45502;-65
2021/07/17 08:54:22;;;;;;;;;30.25;25.75;;;;;-146.80;100.00;64830.25;5085805;27;45520;-66
2021/07/17 08:56:49;;;;;;;;;31.00;25.00;;;;;-146.80;100.00;64830.25;5079671;27;45442;-68
2021/07/17 08:59:14;;;;;;;;;30.25;26.25;;;;;-146.80;100.00;64830.25;5078858;28;45473;-64
2021/07/17 09:01:40;;;;;;;;;30.00;25.25;;;;;-146.80;100.00;64830.25;5078810;28;45580;-70
2021/07/17 09:04:07;;;;;;;;;29.00;23.75;;;;;-146.80;100.00;64830.25;5078331;28;46255;-64
2021/07/17 09:06:33;;;;;;;;;26.25;22.25;;;;;-146.80;100.00;64830.25;5078663;27;45389;-65
2021/07/17 09:08:59;;;;;;;;;24.50;22.00;;;;;-146.80;100.00;64830.25;5043848;28;45355;-66
2021/07/17 09:11:40;;;;;;;;;27.00;25.00;;;;;-146.80;100.00;64830.25;5078766;28;45551;-72
2021/07/17 09:14:06;;;;;;;;;27.75;24.25;;;;;-146.80;100.00;64830.25;5094331;27;46770;-66
2021/07/17 09:16:33;;;;;;;;;27.50;24.00;;;;;-146.80;100.00;64830.25;5078221;28;45380;-64
2021/07/17 09:19:02;;;;;;;;;27.75;24.25;;;;;-146.80;100.00;64830.25;5078955;28;45333;-64
2021/07/17 09:21:31;;;;;;;;;32.00;25.50;;;;;-146.80;100.00;64830.25;5078854;27;45315;-66
2021/07/17 09:24:17;;;;;;;;;31.50;23.50;;;;;-146.80;100.00;64830.25;5078219;28;45411;-67
2021/07/17 09:26:59;;;;;;;;;26.00;26.00;;;;;-146.80;100.00;64830.25;5078037;28;45302;-66
2021/07/17 09:29:36;;;;;;;;;27.50;26.00;;;;;-146.80;100.00;64830.25;5076469;28;45390;-65
2021/07/17 09:32:03;;;;;;;;;26.75;22.75;;;;;-146.80;100.00;64830.25;5078211;28;45650;-68
2021/07/17 09:34:31;;;;;;;;;29.25;26.25;;;;;-146.80;100.00;64830.25;5076930;28;47595;-70
2021/07/17 09:37:00;;;;;;;;;26.50;24.25;;;;;-146.80;100.00;64830.25;5078313;28;45173;-64
2021/07/17 09:39:31;;;;;;;;;26.25;23.75;;;;;-146.80;100.00;64830.25;5077931;27;45328;-71
2021/07/17 09:42:03;;;;;;;;;32.50;25.00;;;;;-146.80;100.00;64830.25;5078785;28;45382;-65
2021/07/17 09:44:30;;;;;;;;;29.00;23.00;;;;;-146.80;100.00;64830.25;5079046;28;45894;-66
2021/07/17 09:46:56;;;;;;;;;26.25;21.25;;;;;-146.80;100.00;64830.25;5078411;28;45413;-67
2021/07/17 09:49:24;;;;;;;;;27.75;23.25;;;;;-146.80;100.00;64830.25;5078181;28;45251;-67
2021/07/17 09:52:13;;;;;;;;;23.50;20.25;;;;;-146.80;100.00;64830.25;5093967;27;45354;-73
2021/07/17 09:55:05;;;;;;;;;24.25;22.75;;;;;-146.80;100.00;64830.25;5077383;27;46515;-71
2021/07/17 09:57:33;;;;;;;;;25.75;23.25;;;;;-146.80;100.00;64830.25;5076480;28;45354;-68
2021/07/17 10:00:10;;;;;;;;;27.75;21.75;;;;;-146.80;100.00;64830.25;5077766;28;45314;-67
2021/07/17 10:02:36;;;;;;;;;28.25;23.25;;;;;-146.80;100.00;64830.25;5093190;27;45439;-66
2021/07/17 10:05:10;;;;;;;;;20.75;17.50;;;;;-146.80;100.00;64830.25;5077619;28;45623;-67
2021/07/17 10:07:36;;;;;;;;;27.75;21.25;;;;;-146.80;100.00;64830.25;5077268;28;45267;-66
2021/07/17 10:10:05;;;;;;;;;33.00;26.00;;;;;-146.80;100.00;64830.25;5077673;28;45399;-68
2021/07/17 10:12:35;;;;;;;;;23.25;23.00;;;;;-146.80;100.00;64830.25;5077571;27;45620;-68
2021/07/17 10:15:06;;;;;;;;;25.75;22.50;;;;;-146.80;100.00;64830.25;5077620;27;45376;-66
2021/07/17 10:17:43;;;;;;;;;25.75;22.75;;;;;-146.80;100.00;64830.25;5077970;28;45413;-71
2021/07/17 10:20:11;;;;;;;;;23.75;23.50;;;;;-146.80;100.00;64830.25;5077595;28;45258;-71
2021/07/17 10:22:37;;;;;;;;;24.00;22.00;;;;;-146.80;100.00;64830.25;5077522;28;45335;-66
2021/07/17 10:25:07;;;;;;;;;30.75;25.50;;;;;-146.80;100.00;64830.25;5076272;28;45288;-65
2021/07/17 10:27:34;;;;;;;;;29.00;26.00;;;;;-146.80;100.00;64830.25;5077612;27;45417;-65
2021/07/17 10:30:00;;;;;;;;;33.25;27.75;;;;;-146.80;100.00;64830.25;5075704;28;45353;-65
2021/07/17 10:32:25;;;;;;;;;25.00;24.00;;;;;-146.80;100.00;64830.25;5076027;28;45208;-64
2021/07/17 10:34:51;;;;;;;;;30.50;23.25;;;;;-146.80;100.00;64830.25;5074714;27;46431;-66
2021/07/17 10:37:22;;;;;;;;;26.50;25.25;;;;;-146.80;100.00;64830.25;5074867;27;45448;-68
2021/07/17 10:40:12;;;;;;;;;28.75;25.75;;;;;-146.80;100.00;64830.25;5076640;27;45419;-69
2021/07/17 10:42:46;;;;;;;;;25.25;22.25;;;;;-146.80;100.00;64830.25;5072175;28;45219;-71
2021/07/17 10:45:11;;;;;;;;;33.00;30.00;;;;;-146.80;100.00;64830.25;5074921;28;46043;-68
2021/07/17 10:47:41;;;;;;;;;23.00;20.50;;;;;-146.80;100.00;64830.25;5074835;27;45448;-65
2021/07/17 10:50:12;;;;;;;;;31.50;27.50;;;;;-146.80;100.00;64830.25;5075383;28;45546;-64
2021/07/17 10:52:43;;;;;;;;;28.25;22.50;;;;;-146.80;100.00;64830.25;5075988;28;45567;-63